sensor_id;sensor_type;location;lat;lon;timestamp;P1;durP1;ratioP1;P2;durP2;ratioP2
37445;SDS011;23307;51.136;14.942;2023-08-07T00:01:46;2.85;;;1.90;;
37445;SDS011;23307;51.136;14.942;2023-08-07T00:04:11;2.75;;;2.13;;
37445;SDS011;23307;51.136;14.942;2023-08-07T00:06:37;3.90;;;2.08;;
37445;SDS011;23307;51.136;14.942;2023-08-07T00:09:02;3.15;;;2.17;;
37445;SDS011;23307;51.136;14.942;2023-08-07T00:11:28;2.38;;;2.10;;
37445;SDS011;23307;51.136;14.942;2023-08-07T00:13:54;3.58;;;2.35;;
37445;SDS011;23307;51.136;14.942;2023-08-07T00:16:20;2.38;;;2.10;;
37445;SDS011;23307;51.136;14.942;2023-08-07T00:18:45;5.22;;;2.20;;
37445;SDS011;23307;51.136;14.942;2023-08-07T00:21:11;2.50;;;2.30;;
37445;SDS011;23307;51.136;14.942;2023-08-07T00:23:37;2.35;;;2.15;;
37445;SDS011;23307;51.136;14.942;2023-08-07T00:26:02;2.45;;;2.20;;
37445;SDS011;23307;51.136;14.942;2023-08-07T00:28:28;2.58;;;2.25;;
37445;SDS011;23307;51.136;14.942;2023-08-07T00:30:54;2.35;;;2.15;;
37445;SDS011;23307;51.136;14.942;2023-08-07T00:33:20;2.67;;;2.47;;
37445;SDS011;23307;51.136;14.942;2023-08-07T00:35:46;2.60;;;2.40;;
37445;SDS011;23307;51.136;14.942;2023-08-07T00:38:11;2.60;;;2.40;;
37445;SDS011;23307;51.136;14.942;2023-08-07T00:40:37;3.85;;;2.50;;
37445;SDS011;23307;51.136;14.942;2023-08-07T00:43:04;2.47;;;2.28;;
37445;SDS011;23307;51.136;14.942;2023-08-07T00:45:31;2.88;;;2.42;;
37445;SDS011;23307;51.136;14.942;2023-08-07T00:48:02;3.30;;;2.85;;
37445;SDS011;23307;51.136;14.942;2023-08-07T00:50:29;4.55;;;2.45;;
37445;SDS011;23307;51.136;14.942;2023-08-07T00:52:55;4.30;;;2.50;;
37445;SDS011;23307;51.136;14.942;2023-08-07T00:55:20;2.95;;;2.58;;
37445;SDS011;23307;51.136;14.942;2023-08-07T00:57:46;2.80;;;2.35;;
37445;SDS011;23307;51.136;14.942;2023-08-07T01:00:13;2.80;;;2.60;;
37445;SDS011;23307;51.136;14.942;2023-08-07T01:02:39;3.00;;;2.70;;
37445;SDS011;23307;51.136;14.942;2023-08-07T01:05:05;2.92;;;2.58;;
37445;SDS011;23307;51.136;14.942;2023-08-07T01:07:31;2.75;;;2.55;;
37445;SDS011;23307;51.136;14.942;2023-08-07T01:09:56;4.05;;;3.00;;
37445;SDS011;23307;51.136;14.942;2023-08-07T01:12:28;3.35;;;3.05;;
37445;SDS011;23307;51.136;14.942;2023-08-07T01:14:58;3.03;;;2.72;;
37445;SDS011;23307;51.136;14.942;2023-08-07T01:17:35;3.35;;;2.90;;
37445;SDS011;23307;51.136;14.942;2023-08-07T01:20:01;4.10;;;2.92;;
37445;SDS011;23307;51.136;14.942;2023-08-07T01:22:27;3.78;;;2.97;;
37445;SDS011;23307;51.136;14.942;2023-08-07T01:24:52;3.22;;;2.92;;
37445;SDS011;23307;51.136;14.942;2023-08-07T01:29:46;3.58;;;3.03;;
37445;SDS011;23307;51.136;14.942;2023-08-07T01:32:54;5.93;;;3.13;;
37445;SDS011;23307;51.136;14.942;2023-08-07T01:35:17;3.28;;;2.97;;
37445;SDS011;23307;51.136;14.942;2023-08-07T01:37:50;4.15;;;2.90;;
37445;SDS011;23307;51.136;14.942;2023-08-07T01:40:16;6.13;;;3.20;;
37445;SDS011;23307;51.136;14.942;2023-08-07T01:42:44;3.42;;;2.95;;
37445;SDS011;23307;51.136;14.942;2023-08-07T01:45:10;3.78;;;2.90;;
37445;SDS011;23307;51.136;14.942;2023-08-07T01:47:35;3.33;;;3.03;;
37445;SDS011;23307;51.136;14.942;2023-08-07T01:50:01;3.35;;;3.05;;
37445;SDS011;23307;51.136;14.942;2023-08-07T01:52:27;3.17;;;2.75;;
37445;SDS011;23307;51.136;14.942;2023-08-07T01:54:52;3.05;;;2.70;;
37445;SDS011;23307;51.136;14.942;2023-08-07T01:57:18;3.45;;;3.00;;
37445;SDS011;23307;51.136;14.942;2023-08-07T01:59:43;3.45;;;2.95;;
37445;SDS011;23307;51.136;14.942;2023-08-07T02:02:09;3.17;;;2.70;;
37445;SDS011;23307;51.136;14.942;2023-08-07T02:04:35;2.70;;;2.45;;
37445;SDS011;23307;51.136;14.942;2023-08-07T02:07:00;3.00;;;2.40;;
37445;SDS011;23307;51.136;14.942;2023-08-07T02:09:26;2.47;;;2.28;;
37445;SDS011;23307;51.136;14.942;2023-08-07T02:11:52;2.50;;;2.30;;
37445;SDS011;23307;51.136;14.942;2023-08-07T02:14:17;2.47;;;2.22;;
37445;SDS011;23307;51.136;14.942;2023-08-07T02:16:43;2.50;;;2.30;;
37445;SDS011;23307;51.136;14.942;2023-08-07T02:19:08;2.50;;;2.28;;
37445;SDS011;23307;51.136;14.942;2023-08-07T02:21:34;3.42;;;2.00;;
37445;SDS011;23307;51.136;14.942;2023-08-07T02:23:59;2.53;;;2.33;;
37445;SDS011;23307;51.136;14.942;2023-08-07T02:26:25;2.60;;;2.25;;
37445;SDS011;23307;51.136;14.942;2023-08-07T02:28:50;2.28;;;2.08;;
37445;SDS011;23307;51.136;14.942;2023-08-07T02:31:16;2.10;;;1.90;;
37445;SDS011;23307;51.136;14.942;2023-08-07T02:33:41;1.90;;;1.80;;
37445;SDS011;23307;51.136;14.942;2023-08-07T02:36:07;2.03;;;1.92;;
37445;SDS011;23307;51.136;14.942;2023-08-07T02:38:33;3.58;;;1.70;;
37445;SDS011;23307;51.136;14.942;2023-08-07T02:40:58;3.55;;;2.10;;
37445;SDS011;23307;51.136;14.942;2023-08-07T02:43:24;2.10;;;1.88;;
37445;SDS011;23307;51.136;14.942;2023-08-07T02:45:51;2.65;;;1.90;;
37445;SDS011;23307;51.136;14.942;2023-08-07T02:48:16;3.80;;;2.00;;
37445;SDS011;23307;51.136;14.942;2023-08-07T02:50:42;2.22;;;2.00;;
37445;SDS011;23307;51.136;14.942;2023-08-07T02:53:09;2.30;;;2.10;;
37445;SDS011;23307;51.136;14.942;2023-08-07T02:55:36;2.10;;;1.98;;
37445;SDS011;23307;51.136;14.942;2023-08-07T02:58:01;2.50;;;2.30;;
37445;SDS011;23307;51.136;14.942;2023-08-07T03:00:27;1.90;;;1.80;;
37445;SDS011;23307;51.136;14.942;2023-08-07T03:02:52;4.30;;;2.28;;
37445;SDS011;23307;51.136;14.942;2023-08-07T03:05:18;2.25;;;2.05;;
37445;SDS011;23307;51.136;14.942;2023-08-07T03:07:43;2.38;;;2.17;;
37445;SDS011;23307;51.136;14.942;2023-08-07T03:10:09;2.33;;;2.13;;
37445;SDS011;23307;51.136;14.942;2023-08-07T03:12:35;2.40;;;2.20;;
37445;SDS011;23307;51.136;14.942;2023-08-07T03:15:02;2.90;;;2.40;;
37445;SDS011;23307;51.136;14.942;2023-08-07T03:17:29;3.85;;;2.33;;
37445;SDS011;23307;51.136;14.942;2023-08-07T03:19:54;2.50;;;2.30;;
37445;SDS011;23307;51.136;14.942;2023-08-07T03:22:20;4.40;;;2.88;;
37445;SDS011;23307;51.136;14.942;2023-08-07T03:24:52;6.32;;;2.75;;
37445;SDS011;23307;51.136;14.942;2023-08-07T03:27:17;2.15;;;2.00;;
37445;SDS011;23307;51.136;14.942;2023-08-07T03:29:42;3.08;;;2.33;;
37445;SDS011;23307;51.136;14.942;2023-08-07T03:32:08;2.70;;;2.42;;
37445;SDS011;23307;51.136;14.942;2023-08-07T03:34:34;3.35;;;2.80;;
37445;SDS011;23307;51.136;14.942;2023-08-07T03:37:00;3.97;;;2.53;;
37445;SDS011;23307;51.136;14.942;2023-08-07T03:39:25;3.38;;;2.58;;
37445;SDS011;23307;51.136;14.942;2023-08-07T03:41:51;3.03;;;2.72;;
37445;SDS011;23307;51.136;14.942;2023-08-07T03:44:16;4.53;;;3.20;;
37445;SDS011;23307;51.136;14.942;2023-08-07T03:46:42;3.60;;;3.30;;
37445;SDS011;23307;51.136;14.942;2023-08-07T03:49:07;4.63;;;2.90;;
37445;SDS011;23307;51.136;14.942;2023-08-07T03:51:33;3.75;;;2.65;;
37445;SDS011;23307;51.136;14.942;2023-08-07T03:53:59;4.55;;;2.72;;
37445;SDS011;23307;51.136;14.942;2023-08-07T03:56:24;3.47;;;2.90;;
37445;SDS011;23307;51.136;14.942;2023-08-07T03:58:50;3.45;;;2.97;;
37445;SDS011;23307;51.136;14.942;2023-08-07T04:01:15;4.05;;;2.90;;
37445;SDS011;23307;51.136;14.942;2023-08-07T04:03:41;4.60;;;3.13;;
37445;SDS011;23307;51.136;14.942;2023-08-07T04:06:07;6.72;;;3.25;;
37445;SDS011;23307;51.136;14.942;2023-08-07T04:08:33;3.20;;;2.90;;
37445;SDS011;23307;51.136;14.942;2023-08-07T04:10:59;4.57;;;3.38;;
37445;SDS011;23307;51.136;14.942;2023-08-07T04:13:29;6.03;;;2.95;;
37445;SDS011;23307;51.136;14.942;2023-08-07T04:15:55;4.00;;;3.13;;
37445;SDS011;23307;51.136;14.942;2023-08-07T04:18:21;4.72;;;3.50;;
37445;SDS011;23307;51.136;14.942;2023-08-07T04:20:51;6.13;;;3.05;;
37445;SDS011;23307;51.136;14.942;2023-08-07T04:23:21;3.92;;;3.38;;
37445;SDS011;23307;51.136;14.942;2023-08-07T04:25:47;4.05;;;3.67;;
37445;SDS011;23307;51.136;14.942;2023-08-07T04:28:13;5.35;;;3.85;;
37445;SDS011;23307;51.136;14.942;2023-08-07T04:30:39;4.95;;;3.67;;
37445;SDS011;23307;51.136;14.942;2023-08-07T04:33:05;6.75;;;3.80;;
37445;SDS011;23307;51.136;14.942;2023-08-07T04:35:32;4.68;;;3.28;;
37445;SDS011;23307;51.136;14.942;2023-08-07T04:37:57;3.53;;;3.20;;
37445;SDS011;23307;51.136;14.942;2023-08-07T04:40:23;4.55;;;3.22;;
37445;SDS011;23307;51.136;14.942;2023-08-07T04:42:48;3.60;;;2.92;;
37445;SDS011;23307;51.136;14.942;2023-08-07T04:45:14;3.70;;;3.10;;
37445;SDS011;23307;51.136;14.942;2023-08-07T04:47:40;4.15;;;3.42;;
37445;SDS011;23307;51.136;14.942;2023-08-07T04:50:06;3.65;;;3.28;;
37445;SDS011;23307;51.136;14.942;2023-08-07T04:52:33;4.35;;;3.88;;
37445;SDS011;23307;51.136;14.942;2023-08-07T04:54:58;4.15;;;3.75;;
37445;SDS011;23307;51.136;14.942;2023-08-07T04:57:24;4.95;;;3.60;;
37445;SDS011;23307;51.136;14.942;2023-08-07T04:59:50;4.43;;;3.80;;
37445;SDS011;23307;51.136;14.942;2023-08-07T05:02:16;5.20;;;3.90;;
37445;SDS011;23307;51.136;14.942;2023-08-07T05:04:41;6.32;;;4.63;;
37445;SDS011;23307;51.136;14.942;2023-08-07T05:07:07;4.90;;;4.40;;
37445;SDS011;23307;51.136;14.942;2023-08-07T05:09:32;7.07;;;4.75;;
37445;SDS011;23307;51.136;14.942;2023-08-07T05:11:58;5.05;;;4.05;;
37445;SDS011;23307;51.136;14.942;2023-08-07T05:14:23;5.68;;;4.05;;
37445;SDS011;23307;51.136;14.942;2023-08-07T05:16:49;5.20;;;4.18;;
37445;SDS011;23307;51.136;14.942;2023-08-07T05:19:14;7.45;;;4.65;;
37445;SDS011;23307;51.136;14.942;2023-08-07T05:21:40;5.57;;;4.43;;
37445;SDS011;23307;51.136;14.942;2023-08-07T05:24:05;5.43;;;4.15;;
37445;SDS011;23307;51.136;14.942;2023-08-07T05:26:31;6.30;;;4.05;;
37445;SDS011;23307;51.136;14.942;2023-08-07T05:28:56;5.70;;;4.30;;
37445;SDS011;23307;51.136;14.942;2023-08-07T05:31:24;4.50;;;3.90;;
37445;SDS011;23307;51.136;14.942;2023-08-07T05:33:49;4.10;;;3.28;;
37445;SDS011;23307;51.136;14.942;2023-08-07T05:36:15;4.43;;;3.67;;
37445;SDS011;23307;51.136;14.942;2023-08-07T05:38:41;7.15;;;3.97;;
37445;SDS011;23307;51.136;14.942;2023-08-07T05:41:08;6.82;;;3.80;;
37445;SDS011;23307;51.136;14.942;2023-08-07T05:43:34;6.10;;;3.83;;
37445;SDS011;23307;51.136;14.942;2023-08-07T05:45:59;6.60;;;4.03;;
37445;SDS011;23307;51.136;14.942;2023-08-07T05:48:25;4.30;;;3.88;;
37445;SDS011;23307;51.136;14.942;2023-08-07T05:50:51;3.75;;;3.45;;
37445;SDS011;23307;51.136;14.942;2023-08-07T05:53:17;5.22;;;3.92;;
37445;SDS011;23307;51.136;14.942;2023-08-07T05:55:43;4.38;;;3.80;;
37445;SDS011;23307;51.136;14.942;2023-08-07T05:58:09;6.50;;;3.80;;
37445;SDS011;23307;51.136;14.942;2023-08-07T06:00:34;6.18;;;4.10;;
37445;SDS011;23307;51.136;14.942;2023-08-07T06:03:00;5.82;;;3.90;;
37445;SDS011;23307;51.136;14.942;2023-08-07T06:05:25;3.83;;;3.28;;
37445;SDS011;23307;51.136;14.942;2023-08-07T06:07:51;3.67;;;3.38;;
37445;SDS011;23307;51.136;14.942;2023-08-07T06:10:16;6.75;;;4.32;;
37445;SDS011;23307;51.136;14.942;2023-08-07T06:12:42;6.03;;;4.18;;
37445;SDS011;23307;51.136;14.942;2023-08-07T06:15:07;5.60;;;5.00;;
37445;SDS011;23307;51.136;14.942;2023-08-07T06:17:34;5.50;;;4.32;;
37445;SDS011;23307;51.136;14.942;2023-08-07T06:19:59;6.00;;;4.53;;
37445;SDS011;23307;51.136;14.942;2023-08-07T06:22:25;6.97;;;4.47;;
37445;SDS011;23307;51.136;14.942;2023-08-07T06:24:50;5.25;;;3.88;;
37445;SDS011;23307;51.136;14.942;2023-08-07T06:27:16;5.75;;;3.95;;
37445;SDS011;23307;51.136;14.942;2023-08-07T06:29:42;7.30;;;4.70;;
37445;SDS011;23307;51.136;14.942;2023-08-07T06:32:07;5.93;;;4.32;;
37445;SDS011;23307;51.136;14.942;2023-08-07T06:34:35;7.35;;;3.72;;
37445;SDS011;23307;51.136;14.942;2023-08-07T06:37:02;5.03;;;3.72;;
37445;SDS011;23307;51.136;14.942;2023-08-07T06:39:29;4.78;;;3.72;;
37445;SDS011;23307;51.136;14.942;2023-08-07T06:41:54;5.05;;;3.60;;
37445;SDS011;23307;51.136;14.942;2023-08-07T06:44:20;5.32;;;3.92;;
37445;SDS011;23307;51.136;14.942;2023-08-07T06:46:45;8.20;;;4.60;;
37445;SDS011;23307;51.136;14.942;2023-08-07T06:49:11;4.80;;;4.35;;
37445;SDS011;23307;51.136;14.942;2023-08-07T06:51:36;5.30;;;4.05;;
37445;SDS011;23307;51.136;14.942;2023-08-07T06:54:02;5.22;;;4.22;;
37445;SDS011;23307;51.136;14.942;2023-08-07T06:56:31;6.57;;;4.82;;
37445;SDS011;23307;51.136;14.942;2023-08-07T06:58:56;5.13;;;4.60;;
37445;SDS011;23307;51.136;14.942;2023-08-07T07:01:22;5.55;;;4.70;;
37445;SDS011;23307;51.136;14.942;2023-08-07T07:03:47;5.63;;;4.80;;
37445;SDS011;23307;51.136;14.942;2023-08-07T07:06:17;6.03;;;4.65;;
37445;SDS011;23307;51.136;14.942;2023-08-07T07:08:43;7.38;;;5.03;;
37445;SDS011;23307;51.136;14.942;2023-08-07T07:11:09;8.60;;;4.82;;
37445;SDS011;23307;51.136;14.942;2023-08-07T07:13:34;4.78;;;4.30;;
37445;SDS011;23307;51.136;14.942;2023-08-07T07:16:00;5.18;;;4.65;;
37445;SDS011;23307;51.136;14.942;2023-08-07T07:18:25;9.55;;;4.47;;
37445;SDS011;23307;51.136;14.942;2023-08-07T07:20:56;5.00;;;4.57;;
37445;SDS011;23307;51.136;14.942;2023-08-07T07:23:25;6.95;;;5.10;;
37445;SDS011;23307;51.136;14.942;2023-08-07T07:25:51;6.13;;;4.82;;
37445;SDS011;23307;51.136;14.942;2023-08-07T07:28:17;7.50;;;4.35;;
37445;SDS011;23307;51.136;14.942;2023-08-07T07:30:42;4.50;;;4.07;;
37445;SDS011;23307;51.136;14.942;2023-08-07T07:33:08;4.72;;;4.18;;
37445;SDS011;23307;51.136;14.942;2023-08-07T07:35:37;5.38;;;3.47;;
37445;SDS011;23307;51.136;14.942;2023-08-07T07:38:03;5.20;;;4.25;;
37445;SDS011;23307;51.136;14.942;2023-08-07T07:40:28;5.40;;;3.90;;
37445;SDS011;23307;51.136;14.942;2023-08-07T07:42:54;7.60;;;3.78;;
37445;SDS011;23307;51.136;14.942;2023-08-07T07:45:19;7.32;;;4.43;;
37445;SDS011;23307;51.136;14.942;2023-08-07T07:47:45;4.18;;;3.63;;
37445;SDS011;23307;51.136;14.942;2023-08-07T07:50:11;4.28;;;3.25;;
37445;SDS011;23307;51.136;14.942;2023-08-07T07:52:37;3.67;;;3.38;;
37445;SDS011;23307;51.136;14.942;2023-08-07T07:55:03;7.05;;;3.50;;
37445;SDS011;23307;51.136;14.942;2023-08-07T07:57:30;4.40;;;3.67;;
37445;SDS011;23307;51.136;14.942;2023-08-07T07:59:55;5.10;;;3.20;;
37445;SDS011;23307;51.136;14.942;2023-08-07T08:02:21;3.78;;;3.38;;
37445;SDS011;23307;51.136;14.942;2023-08-07T08:04:49;6.72;;;3.58;;
37445;SDS011;23307;51.136;14.942;2023-08-07T08:07:16;5.25;;;3.40;;
37445;SDS011;23307;51.136;14.942;2023-08-07T08:09:42;3.88;;;3.20;;
37445;SDS011;23307;51.136;14.942;2023-08-07T08:12:08;7.45;;;3.25;;
37445;SDS011;23307;51.136;14.942;2023-08-07T08:14:33;3.28;;;2.65;;
37445;SDS011;23307;51.136;14.942;2023-08-07T08:16:59;3.58;;;2.50;;
37445;SDS011;23307;51.136;14.942;2023-08-07T08:19:24;3.33;;;2.78;;
37445;SDS011;23307;51.136;14.942;2023-08-07T08:21:50;4.55;;;2.92;;
37445;SDS011;23307;51.136;14.942;2023-08-07T08:24:15;3.22;;;2.35;;
37445;SDS011;23307;51.136;14.942;2023-08-07T08:26:41;3.25;;;2.45;;
37445;SDS011;23307;51.136;14.942;2023-08-07T08:29:07;3.80;;;2.70;;
37445;SDS011;23307;51.136;14.942;2023-08-07T08:31:33;5.88;;;2.33;;
37445;SDS011;23307;51.136;14.942;2023-08-07T08:33:59;2.83;;;2.50;;
37445;SDS011;23307;51.136;14.942;2023-08-07T08:36:25;2.30;;;2.10;;
37445;SDS011;23307;51.136;14.942;2023-08-07T08:38:50;3.25;;;2.47;;
37445;SDS011;23307;51.136;14.942;2023-08-07T08:41:16;3.95;;;2.90;;
37445;SDS011;23307;51.136;14.942;2023-08-07T08:43:42;4.10;;;2.72;;
37445;SDS011;23307;51.136;14.942;2023-08-07T08:46:10;2.35;;;2.00;;
37445;SDS011;23307;51.136;14.942;2023-08-07T08:48:37;2.67;;;2.45;;
37445;SDS011;23307;51.136;14.942;2023-08-07T08:51:04;3.50;;;2.50;;
37445;SDS011;23307;51.136;14.942;2023-08-07T08:53:32;2.63;;;1.90;;
37445;SDS011;23307;51.136;14.942;2023-08-07T08:55:58;4.30;;;2.22;;
37445;SDS011;23307;51.136;14.942;2023-08-07T08:58:26;2.22;;;2.00;;
37445;SDS011;23307;51.136;14.942;2023-08-07T09:00:53;3.95;;;2.30;;
37445;SDS011;23307;51.136;14.942;2023-08-07T09:03:18;2.20;;;2.00;;
37445;SDS011;23307;51.136;14.942;2023-08-07T09:05:44;3.83;;;2.00;;
37445;SDS011;23307;51.136;14.942;2023-08-07T09:08:11;4.72;;;1.52;;
37445;SDS011;23307;51.136;14.942;2023-08-07T09:10:37;2.38;;;2.05;;
37445;SDS011;23307;51.136;14.942;2023-08-07T09:13:04;3.95;;;2.00;;
37445;SDS011;23307;51.136;14.942;2023-08-07T09:15:34;3.60;;;2.00;;
37445;SDS011;23307;51.136;14.942;2023-08-07T09:18:04;3.65;;;1.75;;
37445;SDS011;23307;51.136;14.942;2023-08-07T09:20:32;5.10;;;2.03;;
37445;SDS011;23307;51.136;14.942;2023-08-07T09:22:59;2.10;;;1.95;;
37445;SDS011;23307;51.136;14.942;2023-08-07T09:25:31;3.83;;;1.85;;
37445;SDS011;23307;51.136;14.942;2023-08-07T09:27:58;2.15;;;2.00;;
37445;SDS011;23307;51.136;14.942;2023-08-07T09:30:29;3.03;;;2.00;;
37445;SDS011;23307;51.136;14.942;2023-08-07T09:33:01;2.70;;;2.03;;
37445;SDS011;23307;51.136;14.942;2023-08-07T09:35:28;3.85;;;1.90;;
37445;SDS011;23307;51.136;14.942;2023-08-07T09:37:56;1.83;;;1.73;;
37445;SDS011;23307;51.136;14.942;2023-08-07T09:40:22;3.45;;;2.13;;
37445;SDS011;23307;51.136;14.942;2023-08-07T09:42:54;2.05;;;1.85;;
37445;SDS011;23307;51.136;14.942;2023-08-07T09:45:23;2.38;;;1.90;;
37445;SDS011;23307;51.136;14.942;2023-08-07T09:48:00;3.03;;;1.88;;
37445;SDS011;23307;51.136;14.942;2023-08-07T09:50:27;2.22;;;1.95;;
37445;SDS011;23307;51.136;14.942;2023-08-07T09:52:53;3.53;;;2.00;;
37445;SDS011;23307;51.136;14.942;2023-08-07T09:55:20;1.88;;;1.67;;
37445;SDS011;23307;51.136;14.942;2023-08-07T09:57:46;3.10;;;2.00;;
37445;SDS011;23307;51.136;14.942;2023-08-07T10:00:13;2.15;;;1.70;;
37445;SDS011;23307;51.136;14.942;2023-08-07T10:02:40;1.90;;;1.70;;
37445;SDS011;23307;51.136;14.942;2023-08-07T10:05:07;3.33;;;1.73;;
37445;SDS011;23307;51.136;14.942;2023-08-07T10:07:37;6.18;;;1.80;;
37445;SDS011;23307;51.136;14.942;2023-08-07T10:10:03;3.97;;;1.27;;
37445;SDS011;23307;51.136;14.942;2023-08-07T10:12:29;2.90;;;1.90;;
37445;SDS011;23307;51.136;14.942;2023-08-07T10:14:56;1.75;;;1.20;;
37445;SDS011;23307;51.136;14.942;2023-08-07T10:17:24;5.20;;;1.50;;
37445;SDS011;23307;51.136;14.942;2023-08-07T10:19:53;1.65;;;1.35;;
37445;SDS011;23307;51.136;14.942;2023-08-07T10:22:19;6.82;;;1.70;;
37445;SDS011;23307;51.136;14.942;2023-08-07T10:24:47;1.38;;;1.27;;
37445;SDS011;23307;51.136;14.942;2023-08-07T10:27:14;1.88;;;1.30;;
37445;SDS011;23307;51.136;14.942;2023-08-07T10:29:42;2.42;;;1.67;;
37445;SDS011;23307;51.136;14.942;2023-08-07T10:32:11;3.50;;;1.85;;
37445;SDS011;23307;51.136;14.942;2023-08-07T10:34:37;2.63;;;1.60;;
37445;SDS011;23307;51.136;14.942;2023-08-07T10:37:07;2.15;;;1.48;;
37445;SDS011;23307;51.136;14.942;2023-08-07T10:39:33;1.80;;;1.55;;
37445;SDS011;23307;51.136;14.942;2023-08-07T10:41:59;1.40;;;1.10;;
37445;SDS011;23307;51.136;14.942;2023-08-07T10:44:25;1.88;;;1.25;;
37445;SDS011;23307;51.136;14.942;2023-08-07T10:46:56;1.80;;;1.10;;
37445;SDS011;23307;51.136;14.942;2023-08-07T10:52:13;1.00;;;0.95;;
37445;SDS011;23307;51.136;14.942;2023-08-07T10:54:46;1.17;;;1.10;;
37445;SDS011;23307;51.136;14.942;2023-08-07T10:57:13;0.98;;;0.88;;
37445;SDS011;23307;51.136;14.942;2023-08-07T11:02:21;3.35;;;1.00;;
37445;SDS011;23307;51.136;14.942;2023-08-07T11:04:54;1.38;;;1.27;;
37445;SDS011;23307;51.136;14.942;2023-08-07T11:07:24;5.72;;;1.10;;
37445;SDS011;23307;51.136;14.942;2023-08-07T11:09:51;1.20;;;1.10;;
37445;SDS011;23307;51.136;14.942;2023-08-07T11:12:16;2.10;;;1.00;;
37445;SDS011;23307;51.136;14.942;2023-08-07T11:14:42;2.22;;;1.33;;
37445;SDS011;23307;51.136;14.942;2023-08-07T11:17:07;4.10;;;1.50;;
37445;SDS011;23307;51.136;14.942;2023-08-07T11:19:34;1.60;;;1.30;;
37445;SDS011;23307;51.136;14.942;2023-08-07T11:22:00;1.63;;;1.30;;
37445;SDS011;23307;51.136;14.942;2023-08-07T11:24:26;1.42;;;1.23;;
37445;SDS011;23307;51.136;14.942;2023-08-07T11:26:52;2.70;;;1.40;;
37445;SDS011;23307;51.136;14.942;2023-08-07T11:29:21;2.70;;;1.25;;
37445;SDS011;23307;51.136;14.942;2023-08-07T11:31:49;2.55;;;1.30;;
37445;SDS011;23307;51.136;14.942;2023-08-07T11:34:16;1.80;;;1.40;;
37445;SDS011;23307;51.136;14.942;2023-08-07T11:36:43;1.92;;;1.00;;
37445;SDS011;23307;51.136;14.942;2023-08-07T11:39:09;1.58;;;1.20;;
37445;SDS011;23307;51.136;14.942;2023-08-07T11:41:35;1.95;;;0.85;;
37445;SDS011;23307;51.136;14.942;2023-08-07T11:44:01;1.25;;;1.10;;
37445;SDS011;23307;51.136;14.942;2023-08-07T11:46:26;2.95;;;1.10;;
37445;SDS011;23307;51.136;14.942;2023-08-07T11:48:52;1.65;;;1.00;;
37445;SDS011;23307;51.136;14.942;2023-08-07T11:51:19;1.55;;;1.15;;
37445;SDS011;23307;51.136;14.942;2023-08-07T11:53:45;2.13;;;1.08;;
37445;SDS011;23307;51.136;14.942;2023-08-07T11:56:11;0.98;;;0.88;;
37445;SDS011;23307;51.136;14.942;2023-08-07T11:58:45;1.60;;;1.00;;
37445;SDS011;23307;51.136;14.942;2023-08-07T12:03:41;3.15;;;1.10;;
37445;SDS011;23307;51.136;14.942;2023-08-07T12:06:16;0.90;;;0.82;;
37445;SDS011;23307;51.136;14.942;2023-08-07T12:08:42;1.20;;;1.02;;
37445;SDS011;23307;51.136;14.942;2023-08-07T12:11:11;1.58;;;0.90;;
37445;SDS011;23307;51.136;14.942;2023-08-07T12:13:38;4.18;;;0.90;;
37445;SDS011;23307;51.136;14.942;2023-08-07T12:16:08;1.75;;;0.95;;
37445;SDS011;23307;51.136;14.942;2023-08-07T12:18:34;1.10;;;1.00;;
37445;SDS011;23307;51.136;14.942;2023-08-07T12:21:03;1.00;;;0.75;;
37445;SDS011;23307;51.136;14.942;2023-08-07T12:23:32;0.60;;;0.60;;
37445;SDS011;23307;51.136;14.942;2023-08-07T12:25:58;2.88;;;0.80;;
37445;SDS011;23307;51.136;14.942;2023-08-07T12:28:24;0.70;;;0.70;;
37445;SDS011;23307;51.136;14.942;2023-08-07T12:30:50;0.70;;;0.70;;
37445;SDS011;23307;51.136;14.942;2023-08-07T12:33:16;3.25;;;0.80;;
37445;SDS011;23307;51.136;14.942;2023-08-07T12:35:42;0.95;;;0.80;;
37445;SDS011;23307;51.136;14.942;2023-08-07T12:38:08;0.73;;;0.70;;
37445;SDS011;23307;51.136;14.942;2023-08-07T12:40:34;0.77;;;0.77;;
37445;SDS011;23307;51.136;14.942;2023-08-07T12:43:01;0.90;;;0.60;;
37445;SDS011;23307;51.136;14.942;2023-08-07T12:45:27;0.60;;;0.60;;
37445;SDS011;23307;51.136;14.942;2023-08-07T12:47:53;0.98;;;0.75;;
37445;SDS011;23307;51.136;14.942;2023-08-07T12:50:19;0.73;;;0.73;;
37445;SDS011;23307;51.136;14.942;2023-08-07T12:52:44;0.73;;;0.60;;
37445;SDS011;23307;51.136;14.942;2023-08-07T12:55:10;0.70;;;0.70;;
37445;SDS011;23307;51.136;14.942;2023-08-07T12:57:37;1.52;;;0.88;;
37445;SDS011;23307;51.136;14.942;2023-08-07T13:00:03;1.65;;;0.80;;
37445;SDS011;23307;51.136;14.942;2023-08-07T13:02:29;2.00;;;1.00;;
37445;SDS011;23307;51.136;14.942;2023-08-07T13:04:55;0.90;;;0.80;;
37445;SDS011;23307;51.136;14.942;2023-08-07T13:07:22;0.85;;;0.80;;
37445;SDS011;23307;51.136;14.942;2023-08-07T13:09:47;1.75;;;0.80;;
37445;SDS011;23307;51.136;14.942;2023-08-07T13:12:13;1.13;;;0.70;;
37445;SDS011;23307;51.136;14.942;2023-08-07T13:14:38;0.70;;;0.70;;
37445;SDS011;23307;51.136;14.942;2023-08-07T13:17:04;1.27;;;1.15;;
37445;SDS011;23307;51.136;14.942;2023-08-07T13:19:30;1.38;;;0.80;;
37445;SDS011;23307;51.136;14.942;2023-08-07T13:21:55;1.35;;;0.73;;
37445;SDS011;23307;51.136;14.942;2023-08-07T13:24:21;0.88;;;0.70;;
37445;SDS011;23307;51.136;14.942;2023-08-07T13:26:46;1.10;;;0.73;;
37445;SDS011;23307;51.136;14.942;2023-08-07T13:29:12;0.80;;;0.70;;
37445;SDS011;23307;51.136;14.942;2023-08-07T13:31:37;1.23;;;0.70;;
37445;SDS011;23307;51.136;14.942;2023-08-07T13:34:03;1.05;;;0.82;;
37445;SDS011;23307;51.136;14.942;2023-08-07T13:36:33;0.70;;;0.60;;
37445;SDS011;23307;51.136;14.942;2023-08-07T13:39:03;4.38;;;0.65;;
37445;SDS011;23307;51.136;14.942;2023-08-07T13:41:29;8.45;;;0.70;;
37445;SDS011;23307;51.136;14.942;2023-08-07T13:43:55;1.65;;;0.75;;
37445;SDS011;23307;51.136;14.942;2023-08-07T13:46:20;0.60;;;0.60;;
37445;SDS011;23307;51.136;14.942;2023-08-07T13:48:47;13.50;;;1.75;;
37445;SDS011;23307;51.136;14.942;2023-08-07T13:51:13;1.70;;;0.82;;
37445;SDS011;23307;51.136;14.942;2023-08-07T13:53:39;2.42;;;0.80;;
37445;SDS011;23307;51.136;14.942;2023-08-07T13:56:04;0.95;;;0.68;;
37445;SDS011;23307;51.136;14.942;2023-08-07T13:58:31;0.93;;;0.90;;
37445;SDS011;23307;51.136;14.942;2023-08-07T14:00:57;1.13;;;0.80;;
37445;SDS011;23307;51.136;14.942;2023-08-07T14:03:23;1.52;;;0.65;;
37445;SDS011;23307;51.136;14.942;2023-08-07T14:05:49;1.85;;;0.80;;
37445;SDS011;23307;51.136;14.942;2023-08-07T14:08:15;1.33;;;0.70;;
37445;SDS011;23307;51.136;14.942;2023-08-07T14:10:41;2.20;;;0.70;;
37445;SDS011;23307;51.136;14.942;2023-08-07T14:13:07;1.38;;;0.77;;
37445;SDS011;23307;51.136;14.942;2023-08-07T14:15:32;0.60;;;0.60;;
37445;SDS011;23307;51.136;14.942;2023-08-07T14:17:58;2.78;;;0.60;;
37445;SDS011;23307;51.136;14.942;2023-08-07T14:20:24;0.98;;;0.60;;
37445;SDS011;23307;51.136;14.942;2023-08-07T14:22:50;1.48;;;0.70;;
37445;SDS011;23307;51.136;14.942;2023-08-07T14:25:16;0.75;;;0.75;;
37445;SDS011;23307;51.136;14.942;2023-08-07T14:27:41;0.60;;;0.50;;
37445;SDS011;23307;51.136;14.942;2023-08-07T14:30:07;0.60;;;0.60;;
37445;SDS011;23307;51.136;14.942;2023-08-07T14:32:33;0.80;;;0.80;;
37445;SDS011;23307;51.136;14.942;2023-08-07T14:34:58;2.05;;;0.80;;
37445;SDS011;23307;51.136;14.942;2023-08-07T14:37:24;0.70;;;0.70;;
37445;SDS011;23307;51.136;14.942;2023-08-07T14:39:49;0.68;;;0.65;;